ASIAQ
Weather Now
GREENLAND SURVEY
Sorting:
| Location |
Updated [WGT/WGST] |
Temperature [°C] |
Wind [m/s] |
Air pressure [hPa] |
Relative humidity [%] |
Precipitation [mm] |
| Present | Wind chill | Speed | Max |
| Qaanaaq | 02.09 02:00 | 4,4 | 0,5 | 5,2 ⇐ | 9,4 | 1010 | 57 | 0,0 |
| Kitsissut | 02.09 02:00 | 3,9 | -0,8 | 6,7 ⇖ | 9,8 | 1009 | 76 | n/a |
| Kitsissorsuit | 02.09 02:00 | 4,6 | 0,3 | 6,2 ⇖ | 7,2 | 1007 | 90 | n/a |
| Upernavik | 02.09 02:00 | 3,4 | 0,4 | 3,2 ⇐ | 4,0 | 996 | 97 | 0,1 |
| Qaarsut | 02.09 02:00 | 4,1 | 2,0 | 2,3 ⇖ | 3,1 | 1001 | 92 | 0,1 |
| Nuussuaq | 02.09 02:00 | 5,4 | n/a | 0,0 ⇓ | 0,5 | 1009 | 84 | n/a |
| Qeqertarsuaq | 02.09 02:00 | 6,5 | 4,2 | 3,2 ⇐ | 5,0 | 1010 | 71 | 0,0 |
| Ilulissat | 02.09 02:00 | 6,1 | 4,9 | 1,8 ⇒ | 2,6 | 1008 | 42 | 0,0 |
| Qasigiannguit | 02.09 02:30 | 5,4 | n/a | 0,4 ⇗ | 0,7 | 1009 | 56 | n/a |
| Aasiaat | 02.09 02:00 | 5,4 | n/a | 0,0 ⇓ | 0,0 | 1007 | 91 | 0,0 |
| Kangerlussuaq | 02.09 02:00 | 3,7 | 1,0 | 2,9 ⇙ | 4,1 | 1005 | 69 | n/a |
| Sisimiut | 02.09 02:00 | 7,0 | n/a | 0,0 ⇓ | 1,5 | 1010 | 82 | 0,0 |
| Maniitsoq | 02.09 02:00 | 7,7 | n/a | 0,7 ⇓ | 1,2 | 1008 | 76 | 0,0 |
| Sioralik | 02.09 02:00 | 6,3 | 4,0 | 3,1 ⇘ | 3,6 | 1011 | 95 | n/a |
| Niaqornaa | 02.09 02:00 | 6,9 | 3,3 | 5,8 ⇙ | 7,3 | 1005 | 58 | n/a |
| Qeqertannguaq | 02.09 02:30 | 6,4 | 3,2 | 4,8 ⇖ | 5,8 | n/a | 81 | n/a |
| Kapisillit | 02.09 02:00 | 3,6 | 0,5 | 3,5 ⇐ | 5,0 | 1003 | 77 | 0,0 |
| Kuanninnguit | 02.09 02:00 | 6,9 | n/a | 0,9 ⇑ | 1,6 | 1005 | 71 | n/a |
| Nuuk City | 02.09 02:30 | 4,6 | 2,6 | 2,3 ⇒ | 2,9 | 1002 | 100 | n/a |
| Ukiiviit | 02.09 02:00 | 3,5 | 0,6 | 3,1 ⇘ | 4,1 | 1010 | 100 | n/a |
| Paamiut | 02.09 02:00 | 2,0 | n/a | 1,2 ⇒ | 2,0 | 1008 | 100 | 0,0 |
| Narsarsuaq | 02.09 02:00 | 5,8 | 4,2 | 2,1 ⇙ | 4,0 | 1008 | 41 | n/a |
| Narsaq | 02.09 02:00 | 2,5 | 1,3 | 1,4 ⇑ | 2,4 | 1008 | 97 | 0,0 |
| Nunarsuit | 02.09 02:00 | 3,5 | -0,9 | 5,7 ⇘ | 7,2 | 1008 | 100 | n/a |
| Upernaviarsuk | 02.09 02:00 | 3,7 | 2,1 | 1,8 ⇐ | 2,6 | 1010 | 85 | n/a |
| Qaqortoq | 02.09 02:00 | 6,3 | 5,0 | 1,9 ⇘ | 2,8 | 1004 | 80 | 0,0 |
| Angisoq | 02.09 02:00 | 5,3 | 1,6 | 5,1 ⇘ | 5,7 | 1009 | 88 | n/a |
| Prins Christian Sund | 02.09 02:00 | 4,9 | 3,8 | 1,5 ⇘ | 3,1 | 999 | 75 | n/a |
| Nanortalik | 02.09 02:00 | 5,9 | 3,9 | 2,6 ⇓ | 3,8 | 1009 | 91 | n/a |
| Ikermiuarsuk | 02.09 02:00 | 5,0 | 0,4 | 7,2 ⇓ | 8,8 | 1006 | 70 | n/a |
| Ikermit | 02.09 02:00 | 1,8 | -4,6 | 9,8 ⇘ | 12,9 | 1001 | 48 | n/a |
| Kulusuk | 02.09 02:00 | 2,7 | n/a | 0,0 ⇓ | 0,0 | 1006 | 87 | n/a |
| Tasiilaq | 02.09 02:00 | 1,9 | n/a | 0,0 ⇓ | 1,8 | 1004 | 94 | 0,0 |
| Aputiteeq | 02.09 02:00 | -0,4 | -2,3 | 1,5 ⇒ | 2,1 | 1010 | 97 | n/a |
| Ittoqqortoormiit | 02.09 02:00 | 3,6 | -1,1 | 6,5 ⇑ | 9,2 | 1002 | 83 | n/a |
| Nerlerit Inaat | 02.09 02:00 | 4,1 | 0,9 | 4,0 ⇖ | 5,0 | 1009 | 79 | n/a |
| Daneborg | 02.09 02:00 | 2,2 | -1,7 | 4,0 ⇐ | 5,0 | 1013 | 82 | n/a |
| Zackenberg | 01.09 12:00 | n/a | n/a | 2,1 ⇑ | 3,4 | n/a | n/a | n/a |
| Danmarkshavn | 02.09 02:00 | 0,6 | n/a | n/a | 4,0 | 1014 | 70 | n/a |
| Henrik Krøyer Holme | 02.09 02:00 | -6,0 | -12,9 | 6,0 ⇙ | 7,0 | 1014 | 92 | n/a |
| Station Nord | 02.09 02:00 | -6,6 | n/a | n/a | n/a | 1011 | 90 | n/a |
| Kap Morris Jesup | 02.09 02:00 | -5,3 | n/a | n/a | n/a | 1012 | 97 | n/a |
Advanced version ⤻
Data source - Operated by - Disclaimer ▼